sensor_id;sensor_type;location;lat;lon;timestamp;P1;durP1;ratioP1;P2;durP2;ratioP2
21780;SDS011;52576;53.614;9.894;2022-09-20T00:00:06;17.98;;;2.70;;
21780;SDS011;52576;53.614;9.894;2022-09-20T00:01:12;15.98;;;2.40;;
21780;SDS011;52576;53.614;9.894;2022-09-20T00:02:16;19.65;;;2.80;;
21780;SDS011;52576;53.614;9.894;2022-09-20T00:03:19;19.92;;;2.88;;
21780;SDS011;52576;53.614;9.894;2022-09-20T00:04:21;18.85;;;2.50;;
21780;SDS011;52576;53.614;9.894;2022-09-20T00:05:24;16.90;;;3.38;;
21780;SDS011;52576;53.614;9.894;2022-09-20T00:06:27;18.00;;;2.78;;
21780;SDS011;52576;53.614;9.894;2022-09-20T00:07:32;14.43;;;2.63;;
21780;SDS011;52576;53.614;9.894;2022-09-20T00:08:34;21.63;;;3.28;;
21780;SDS011;52576;53.614;9.894;2022-09-20T00:09:39;20.30;;;2.80;;
21780;SDS011;52576;53.614;9.894;2022-09-20T00:10:41;15.88;;;3.10;;
21780;SDS011;52576;53.614;9.894;2022-09-20T00:11:44;14.82;;;2.65;;
21780;SDS011;52576;53.614;9.894;2022-09-20T00:12:48;17.55;;;3.13;;
21780;SDS011;52576;53.614;9.894;2022-09-20T00:13:52;20.58;;;2.90;;
21780;SDS011;52576;53.614;9.894;2022-09-20T00:14:56;10.52;;;2.85;;
21780;SDS011;52576;53.614;9.894;2022-09-20T00:16:02;12.07;;;2.80;;
21780;SDS011;52576;53.614;9.894;2022-09-20T00:17:05;15.73;;;2.67;;
21780;SDS011;52576;53.614;9.894;2022-09-20T00:18:08;14.48;;;2.83;;
21780;SDS011;52576;53.614;9.894;2022-09-20T00:19:14;13.27;;;3.35;;
21780;SDS011;52576;53.614;9.894;2022-09-20T00:20:19;18.13;;;2.90;;
21780;SDS011;52576;53.614;9.894;2022-09-20T00:21:22;15.75;;;2.70;;
21780;SDS011;52576;53.614;9.894;2022-09-20T00:22:27;11.35;;;3.28;;
21780;SDS011;52576;53.614;9.894;2022-09-20T00:23:29;14.75;;;2.95;;
21780;SDS011;52576;53.614;9.894;2022-09-20T00:24:32;17.30;;;2.97;;
21780;SDS011;52576;53.614;9.894;2022-09-20T00:25:37;17.58;;;3.35;;
21780;SDS011;52576;53.614;9.894;2022-09-20T00:26:40;23.08;;;3.30;;
21780;SDS011;52576;53.614;9.894;2022-09-20T00:27:42;17.35;;;2.67;;
21780;SDS011;52576;53.614;9.894;2022-09-20T00:28:47;25.70;;;3.38;;
21780;SDS011;52576;53.614;9.894;2022-09-20T00:29:49;14.95;;;2.80;;
21780;SDS011;52576;53.614;9.894;2022-09-20T00:30:53;19.48;;;3.00;;
21780;SDS011;52576;53.614;9.894;2022-09-20T00:31:57;20.17;;;3.10;;
21780;SDS011;52576;53.614;9.894;2022-09-20T00:33:00;21.67;;;2.83;;
21780;SDS011;52576;53.614;9.894;2022-09-20T00:34:02;17.15;;;3.03;;
21780;SDS011;52576;53.614;9.894;2022-09-20T00:35:22;18.70;;;3.10;;
21780;SDS011;52576;53.614;9.894;2022-09-20T00:36:25;16.85;;;3.00;;
21780;SDS011;52576;53.614;9.894;2022-09-20T00:37:27;20.52;;;3.08;;
21780;SDS011;52576;53.614;9.894;2022-09-20T00:38:31;15.98;;;3.20;;
21780;SDS011;52576;53.614;9.894;2022-09-20T00:39:33;19.13;;;3.10;;
21780;SDS011;52576;53.614;9.894;2022-09-20T00:40:36;11.45;;;2.65;;
21780;SDS011;52576;53.614;9.894;2022-09-20T00:41:38;20.23;;;3.30;;
21780;SDS011;52576;53.614;9.894;2022-09-20T00:42:41;12.98;;;3.00;;
21780;SDS011;52576;53.614;9.894;2022-09-20T00:43:44;21.08;;;3.33;;
21780;SDS011;52576;53.614;9.894;2022-09-20T00:44:55;22.88;;;3.42;;
21780;SDS011;52576;53.614;9.894;2022-09-20T00:45:58;22.20;;;3.53;;
21780;SDS011;52576;53.614;9.894;2022-09-20T00:47:03;20.10;;;2.97;;
21780;SDS011;52576;53.614;9.894;2022-09-20T00:48:09;15.98;;;3.13;;
21780;SDS011;52576;53.614;9.894;2022-09-20T00:49:16;18.63;;;3.25;;
21780;SDS011;52576;53.614;9.894;2022-09-20T00:50:25;22.02;;;3.00;;
21780;SDS011;52576;53.614;9.894;2022-09-20T00:51:33;14.77;;;2.95;;
21780;SDS011;52576;53.614;9.894;2022-09-20T00:52:39;18.83;;;3.50;;
21780;SDS011;52576;53.614;9.894;2022-09-20T00:53:46;19.77;;;3.25;;
21780;SDS011;52576;53.614;9.894;2022-09-20T00:54:51;22.52;;;3.50;;
21780;SDS011;52576;53.614;9.894;2022-09-20T00:55:56;24.90;;;4.50;;
21780;SDS011;52576;53.614;9.894;2022-09-20T00:57:03;21.33;;;5.40;;
21780;SDS011;52576;53.614;9.894;2022-09-20T00:58:05;24.10;;;6.45;;
21780;SDS011;52576;53.614;9.894;2022-09-20T00:59:10;20.17;;;4.13;;
21780;SDS011;52576;53.614;9.894;2022-09-20T01:00:19;25.65;;;3.80;;
21780;SDS011;52576;53.614;9.894;2022-09-20T01:01:22;15.43;;;4.00;;
21780;SDS011;52576;53.614;9.894;2022-09-20T01:02:25;18.70;;;3.38;;
21780;SDS011;52576;53.614;9.894;2022-09-20T01:03:32;16.42;;;3.17;;
21780;SDS011;52576;53.614;9.894;2022-09-20T01:04:37;21.25;;;3.65;;
21780;SDS011;52576;53.614;9.894;2022-09-20T01:05:43;20.95;;;3.60;;
21780;SDS011;52576;53.614;9.894;2022-09-20T01:06:45;22.40;;;3.90;;
21780;SDS011;52576;53.614;9.894;2022-09-20T01:07:51;17.70;;;4.03;;
21780;SDS011;52576;53.614;9.894;2022-09-20T01:08:54;22.60;;;4.00;;
21780;SDS011;52576;53.614;9.894;2022-09-20T01:09:59;16.13;;;4.03;;
21780;SDS011;52576;53.614;9.894;2022-09-20T01:11:01;21.92;;;4.15;;
21780;SDS011;52576;53.614;9.894;2022-09-20T01:12:05;22.10;;;4.00;;
21780;SDS011;52576;53.614;9.894;2022-09-20T01:13:10;18.80;;;4.25;;
21780;SDS011;52576;53.614;9.894;2022-09-20T01:14:13;20.90;;;4.32;;
21780;SDS011;52576;53.614;9.894;2022-09-20T01:15:18;15.68;;;2.88;;
21780;SDS011;52576;53.614;9.894;2022-09-20T01:16:24;20.55;;;3.78;;
21780;SDS011;52576;53.614;9.894;2022-09-20T01:17:28;22.65;;;4.20;;
21780;SDS011;52576;53.614;9.894;2022-09-20T01:18:34;22.50;;;3.90;;
21780;SDS011;52576;53.614;9.894;2022-09-20T01:19:39;20.60;;;4.03;;
21780;SDS011;52576;53.614;9.894;2022-09-20T01:20:48;20.75;;;4.05;;
21780;SDS011;52576;53.614;9.894;2022-09-20T01:21:52;18.48;;;3.75;;
21780;SDS011;52576;53.614;9.894;2022-09-20T01:22:59;13.63;;;3.80;;
21780;SDS011;52576;53.614;9.894;2022-09-20T01:24:17;26.85;;;4.43;;
21780;SDS011;52576;53.614;9.894;2022-09-20T01:25:35;20.95;;;3.38;;
21780;SDS011;52576;53.614;9.894;2022-09-20T01:27:01;15.70;;;3.50;;
21780;SDS011;52576;53.614;9.894;2022-09-20T01:28:19;19.33;;;3.70;;
21780;SDS011;52576;53.614;9.894;2022-09-20T01:29:25;21.17;;;3.78;;
21780;SDS011;52576;53.614;9.894;2022-09-20T01:30:47;15.55;;;3.65;;
21780;SDS011;52576;53.614;9.894;2022-09-20T01:32:02;20.77;;;3.80;;
21780;SDS011;52576;53.614;9.894;2022-09-20T01:33:10;22.17;;;4.00;;
21780;SDS011;52576;53.614;9.894;2022-09-20T01:34:26;18.23;;;3.55;;
21780;SDS011;52576;53.614;9.894;2022-09-20T01:35:31;20.83;;;4.07;;
21780;SDS011;52576;53.614;9.894;2022-09-20T01:36:38;16.83;;;3.72;;
21780;SDS011;52576;53.614;9.894;2022-09-20T01:37:55;21.25;;;3.88;;
21780;SDS011;52576;53.614;9.894;2022-09-20T01:39:07;24.45;;;3.90;;
21780;SDS011;52576;53.614;9.894;2022-09-20T01:40:15;19.48;;;3.92;;
21780;SDS011;52576;53.614;9.894;2022-09-20T01:41:25;18.25;;;3.90;;
21780;SDS011;52576;53.614;9.894;2022-09-20T01:42:32;19.88;;;4.13;;
21780;SDS011;52576;53.614;9.894;2022-09-20T01:43:41;24.70;;;4.93;;
21780;SDS011;52576;53.614;9.894;2022-09-20T01:44:51;18.48;;;4.28;;
21780;SDS011;52576;53.614;9.894;2022-09-20T01:46:05;23.25;;;4.63;;
21780;SDS011;52576;53.614;9.894;2022-09-20T01:47:25;18.42;;;4.35;;
21780;SDS011;52576;53.614;9.894;2022-09-20T01:48:36;26.40;;;5.35;;
21780;SDS011;52576;53.614;9.894;2022-09-20T01:49:42;24.33;;;5.00;;
21780;SDS011;52576;53.614;9.894;2022-09-20T01:51:03;20.30;;;5.25;;
21780;SDS011;52576;53.614;9.894;2022-09-20T01:54:18;20.00;;;4.43;;
21780;SDS011;52576;53.614;9.894;2022-09-20T01:56:14;17.70;;;4.88;;
21780;SDS011;52576;53.614;9.894;2022-09-20T01:57:51;18.20;;;4.30;;
21780;SDS011;52576;53.614;9.894;2022-09-20T01:59:15;22.55;;;4.50;;
21780;SDS011;52576;53.614;9.894;2022-09-20T02:00:50;23.67;;;5.00;;
21780;SDS011;52576;53.614;9.894;2022-09-20T02:02:12;23.17;;;4.72;;
21780;SDS011;52576;53.614;9.894;2022-09-20T02:05:16;21.60;;;4.60;;
21780;SDS011;52576;53.614;9.894;2022-09-20T02:06:38;22.02;;;4.47;;
21780;SDS011;52576;53.614;9.894;2022-09-20T02:07:53;21.67;;;4.78;;
21780;SDS011;52576;53.614;9.894;2022-09-20T02:11:05;21.95;;;4.95;;
21780;SDS011;52576;53.614;9.894;2022-09-20T02:12:16;18.58;;;4.47;;
21780;SDS011;52576;53.614;9.894;2022-09-20T02:13:39;25.92;;;5.35;;
21780;SDS011;52576;53.614;9.894;2022-09-20T02:15:03;25.50;;;5.55;;
21780;SDS011;52576;53.614;9.894;2022-09-20T02:16:19;21.45;;;4.90;;
21780;SDS011;52576;53.614;9.894;2022-09-20T02:17:31;15.52;;;4.55;;
21780;SDS011;52576;53.614;9.894;2022-09-20T02:18:46;24.15;;;5.53;;
21780;SDS011;52576;53.614;9.894;2022-09-20T02:20:06;18.67;;;5.00;;
21780;SDS011;52576;53.614;9.894;2022-09-20T02:21:34;24.60;;;5.10;;
21780;SDS011;52576;53.614;9.894;2022-09-20T02:22:40;20.80;;;5.38;;
21780;SDS011;52576;53.614;9.894;2022-09-20T02:23:53;18.40;;;5.30;;
21780;SDS011;52576;53.614;9.894;2022-09-20T02:25:05;21.15;;;4.80;;
21780;SDS011;52576;53.614;9.894;2022-09-20T02:26:23;20.85;;;5.40;;
21780;SDS011;52576;53.614;9.894;2022-09-20T02:27:37;25.05;;;5.13;;
21780;SDS011;52576;53.614;9.894;2022-09-20T02:28:50;18.15;;;5.20;;
21780;SDS011;52576;53.614;9.894;2022-09-20T02:29:59;26.77;;;5.30;;
21780;SDS011;52576;53.614;9.894;2022-09-20T02:31:13;16.35;;;4.63;;
21780;SDS011;52576;53.614;9.894;2022-09-20T02:32:28;11.25;;;4.45;;
21780;SDS011;52576;53.614;9.894;2022-09-20T02:33:57;22.83;;;4.97;;
21780;SDS011;52576;53.614;9.894;2022-09-20T02:35:24;17.20;;;5.13;;
21780;SDS011;52576;53.614;9.894;2022-09-20T02:36:34;18.52;;;4.80;;
21780;SDS011;52576;53.614;9.894;2022-09-20T02:37:59;17.60;;;4.45;;
21780;SDS011;52576;53.614;9.894;2022-09-20T02:39:09;16.83;;;5.05;;
21780;SDS011;52576;53.614;9.894;2022-09-20T02:40:18;17.52;;;4.97;;
21780;SDS011;52576;53.614;9.894;2022-09-20T02:41:46;16.15;;;4.55;;
21780;SDS011;52576;53.614;9.894;2022-09-20T02:42:57;13.63;;;4.28;;
21780;SDS011;52576;53.614;9.894;2022-09-20T02:44:06;22.40;;;5.30;;
21780;SDS011;52576;53.614;9.894;2022-09-20T02:45:15;16.20;;;4.68;;
21780;SDS011;52576;53.614;9.894;2022-09-20T02:47:31;16.23;;;4.32;;
21780;SDS011;52576;53.614;9.894;2022-09-20T02:48:37;17.27;;;4.32;;
21780;SDS011;52576;53.614;9.894;2022-09-20T02:49:50;20.08;;;4.93;;
21780;SDS011;52576;53.614;9.894;2022-09-20T02:51:01;14.77;;;3.95;;
21780;SDS011;52576;53.614;9.894;2022-09-20T02:52:13;13.93;;;4.35;;
21780;SDS011;52576;53.614;9.894;2022-09-20T02:53:26;13.23;;;4.57;;
21780;SDS011;52576;53.614;9.894;2022-09-20T02:54:41;16.10;;;4.32;;
21780;SDS011;52576;53.614;9.894;2022-09-20T02:55:57;21.58;;;4.60;;
21780;SDS011;52576;53.614;9.894;2022-09-20T02:57:09;15.63;;;4.75;;
21780;SDS011;52576;53.614;9.894;2022-09-20T02:58:24;13.13;;;4.80;;
21780;SDS011;52576;53.614;9.894;2022-09-20T02:59:34;16.02;;;5.63;;
21780;SDS011;52576;53.614;9.894;2022-09-20T03:00:44;21.25;;;5.00;;
21780;SDS011;52576;53.614;9.894;2022-09-20T03:01:56;13.32;;;4.38;;
21780;SDS011;52576;53.614;9.894;2022-09-20T03:03:06;14.63;;;4.40;;
21780;SDS011;52576;53.614;9.894;2022-09-20T03:04:22;18.08;;;4.00;;
21780;SDS011;52576;53.614;9.894;2022-09-20T03:05:42;15.10;;;4.20;;
21780;SDS011;52576;53.614;9.894;2022-09-20T03:06:54;14.60;;;4.13;;
21780;SDS011;52576;53.614;9.894;2022-09-20T03:08:03;16.73;;;4.43;;
21780;SDS011;52576;53.614;9.894;2022-09-20T03:09:25;15.88;;;3.80;;
21780;SDS011;52576;53.614;9.894;2022-09-20T03:10:33;13.40;;;4.40;;
21780;SDS011;52576;53.614;9.894;2022-09-20T03:11:41;15.90;;;4.40;;
21780;SDS011;52576;53.614;9.894;2022-09-20T03:12:54;15.48;;;4.45;;
21780;SDS011;52576;53.614;9.894;2022-09-20T03:14:09;15.15;;;4.20;;
21780;SDS011;52576;53.614;9.894;2022-09-20T03:15:15;15.82;;;4.75;;
21780;SDS011;52576;53.614;9.894;2022-09-20T03:16:33;17.00;;;4.43;;
21780;SDS011;52576;53.614;9.894;2022-09-20T03:17:56;12.15;;;4.50;;
21780;SDS011;52576;53.614;9.894;2022-09-20T03:19:10;17.52;;;4.65;;
21780;SDS011;52576;53.614;9.894;2022-09-20T03:20:22;21.40;;;4.90;;
21780;SDS011;52576;53.614;9.894;2022-09-20T03:21:35;13.57;;;4.30;;
21780;SDS011;52576;53.614;9.894;2022-09-20T03:22:47;19.92;;;4.28;;
21780;SDS011;52576;53.614;9.894;2022-09-20T03:24:02;16.52;;;4.60;;
21780;SDS011;52576;53.614;9.894;2022-09-20T03:25:19;15.05;;;4.47;;
21780;SDS011;52576;53.614;9.894;2022-09-20T03:26:46;14.40;;;4.38;;
21780;SDS011;52576;53.614;9.894;2022-09-20T03:27:58;13.70;;;4.53;;
21780;SDS011;52576;53.614;9.894;2022-09-20T03:29:14;13.57;;;4.10;;
21780;SDS011;52576;53.614;9.894;2022-09-20T03:30:29;12.35;;;4.55;;
21780;SDS011;52576;53.614;9.894;2022-09-20T03:31:51;13.07;;;4.32;;
21780;SDS011;52576;53.614;9.894;2022-09-20T03:33:05;9.10;;;4.35;;
21780;SDS011;52576;53.614;9.894;2022-09-20T03:34:19;18.60;;;7.07;;
21780;SDS011;52576;53.614;9.894;2022-09-20T03:35:41;19.38;;;5.95;;
21780;SDS011;52576;53.614;9.894;2022-09-20T03:36:54;17.83;;;6.10;;
21780;SDS011;52576;53.614;9.894;2022-09-20T03:38:09;14.65;;;5.72;;
21780;SDS011;52576;53.614;9.894;2022-09-20T03:39:24;19.85;;;5.00;;
21780;SDS011;52576;53.614;9.894;2022-09-20T03:40:48;15.60;;;5.38;;
21780;SDS011;52576;53.614;9.894;2022-09-20T03:42:00;12.70;;;6.07;;
21780;SDS011;52576;53.614;9.894;2022-09-20T03:43:17;13.70;;;5.40;;
21780;SDS011;52576;53.614;9.894;2022-09-20T03:44:38;14.10;;;6.03;;
21780;SDS011;52576;53.614;9.894;2022-09-20T03:45:59;15.10;;;6.20;;
21780;SDS011;52576;53.614;9.894;2022-09-20T03:47:20;24.70;;;6.30;;
21780;SDS011;52576;53.614;9.894;2022-09-20T03:48:44;18.08;;;7.20;;
21780;SDS011;52576;53.614;9.894;2022-09-20T03:50:05;13.68;;;5.70;;
21780;SDS011;52576;53.614;9.894;2022-09-20T03:51:21;17.50;;;6.43;;
21780;SDS011;52576;53.614;9.894;2022-09-20T03:52:38;12.30;;;4.63;;
21780;SDS011;52576;53.614;9.894;2022-09-20T03:53:58;12.18;;;4.22;;
21780;SDS011;52576;53.614;9.894;2022-09-20T03:57:10;9.65;;;3.85;;
21780;SDS011;52576;53.614;9.894;2022-09-20T03:58:33;10.20;;;3.80;;
21780;SDS011;52576;53.614;9.894;2022-09-20T03:59:55;12.82;;;3.85;;
21780;SDS011;52576;53.614;9.894;2022-09-20T04:01:14;11.18;;;3.80;;
21780;SDS011;52576;53.614;9.894;2022-09-20T04:02:44;8.30;;;3.80;;
21780;SDS011;52576;53.614;9.894;2022-09-20T04:04:12;7.82;;;3.60;;
21780;SDS011;52576;53.614;9.894;2022-09-20T04:05:24;14.77;;;4.03;;
21780;SDS011;52576;53.614;9.894;2022-09-20T04:06:40;7.38;;;3.78;;
21780;SDS011;52576;53.614;9.894;2022-09-20T04:08:02;11.68;;;3.53;;
21780;SDS011;52576;53.614;9.894;2022-09-20T04:10:52;12.43;;;3.45;;
21780;SDS011;52576;53.614;9.894;2022-09-20T04:12:04;11.30;;;3.53;;
21780;SDS011;52576;53.614;9.894;2022-09-20T04:13:20;12.32;;;3.70;;
21780;SDS011;52576;53.614;9.894;2022-09-20T04:14:33;6.22;;;3.45;;
21780;SDS011;52576;53.614;9.894;2022-09-20T04:15:45;9.32;;;3.80;;
21780;SDS011;52576;53.614;9.894;2022-09-20T04:17:00;10.55;;;3.47;;
21780;SDS011;52576;53.614;9.894;2022-09-20T04:18:18;11.15;;;3.58;;
21780;SDS011;52576;53.614;9.894;2022-09-20T04:19:30;8.77;;;3.40;;
21780;SDS011;52576;53.614;9.894;2022-09-20T04:20:42;9.55;;;3.80;;
21780;SDS011;52576;53.614;9.894;2022-09-20T04:21:48;9.90;;;3.55;;
21780;SDS011;52576;53.614;9.894;2022-09-20T04:22:58;14.27;;;3.80;;
21780;SDS011;52576;53.614;9.894;2022-09-20T04:24:08;9.35;;;3.70;;
21780;SDS011;52576;53.614;9.894;2022-09-20T04:25:22;10.57;;;3.85;;
21780;SDS011;52576;53.614;9.894;2022-09-20T04:26:31;11.13;;;3.70;;
21780;SDS011;52576;53.614;9.894;2022-09-20T04:27:39;11.93;;;3.65;;
21780;SDS011;52576;53.614;9.894;2022-09-20T04:28:46;12.13;;;4.00;;
21780;SDS011;52576;53.614;9.894;2022-09-20T04:29:54;11.77;;;3.75;;
21780;SDS011;52576;53.614;9.894;2022-09-20T04:31:02;10.93;;;3.53;;
21780;SDS011;52576;53.614;9.894;2022-09-20T04:32:14;9.05;;;3.72;;
21780;SDS011;52576;53.614;9.894;2022-09-20T04:33:27;15.13;;;4.07;;
21780;SDS011;52576;53.614;9.894;2022-09-20T04:34:37;9.68;;;3.70;;
21780;SDS011;52576;53.614;9.894;2022-09-20T04:36:04;13.85;;;3.35;;
21780;SDS011;52576;53.614;9.894;2022-09-20T04:37:31;8.02;;;3.85;;
21780;SDS011;52576;53.614;9.894;2022-09-20T04:38:37;7.15;;;3.45;;
21780;SDS011;52576;53.614;9.894;2022-09-20T04:39:41;10.70;;;3.80;;
21780;SDS011;52576;53.614;9.894;2022-09-20T04:41:05;10.68;;;3.70;;
21780;SDS011;52576;53.614;9.894;2022-09-20T04:42:37;11.35;;;3.70;;
21780;SDS011;52576;53.614;9.894;2022-09-20T04:44:11;8.00;;;3.53;;
21780;SDS011;52576;53.614;9.894;2022-09-20T04:45:34;10.48;;;3.67;;
21780;SDS011;52576;53.614;9.894;2022-09-20T04:47:26;8.45;;;3.80;;
21780;SDS011;52576;53.614;9.894;2022-09-20T04:48:49;8.27;;;3.80;;
21780;SDS011;52576;53.614;9.894;2022-09-20T04:50:28;10.75;;;3.58;;
21780;SDS011;52576;53.614;9.894;2022-09-20T04:53:46;9.50;;;3.42;;
21780;SDS011;52576;53.614;9.894;2022-09-20T04:56:41;11.65;;;3.40;;
21780;SDS011;52576;53.614;9.894;2022-09-20T04:59:37;8.35;;;3.33;;
21780;SDS011;52576;53.614;9.894;2022-09-20T05:01:04;6.05;;;3.20;;
21780;SDS011;52576;53.614;9.894;2022-09-20T05:04:28;10.77;;;3.20;;
21780;SDS011;52576;53.614;9.894;2022-09-20T05:07:42;10.27;;;3.55;;
21780;SDS011;52576;53.614;9.894;2022-09-20T05:12:33;8.87;;;3.27;;
21780;SDS011;52576;53.614;9.894;2022-09-20T05:13:54;11.43;;;3.58;;
21780;SDS011;52576;53.614;9.894;2022-09-20T05:15:15;12.93;;;4.03;;
21780;SDS011;52576;53.614;9.894;2022-09-20T05:17:55;7.13;;;3.22;;
21780;SDS011;52576;53.614;9.894;2022-09-20T05:19:24;8.48;;;3.40;;
21780;SDS011;52576;53.614;9.894;2022-09-20T05:20:41;6.53;;;3.17;;
21780;SDS011;52576;53.614;9.894;2022-09-20T05:21:55;6.18;;;3.00;;
21780;SDS011;52576;53.614;9.894;2022-09-20T05:23:13;12.20;;;3.58;;
21780;SDS011;52576;53.614;9.894;2022-09-20T05:26:13;8.40;;;3.45;;
21780;SDS011;52576;53.614;9.894;2022-09-20T05:27:33;8.30;;;3.10;;
21780;SDS011;52576;53.614;9.894;2022-09-20T05:28:50;9.35;;;3.70;;
21780;SDS011;52576;53.614;9.894;2022-09-20T05:30:00;10.02;;;3.72;;
21780;SDS011;52576;53.614;9.894;2022-09-20T05:31:07;10.30;;;3.65;;
21780;SDS011;52576;53.614;9.894;2022-09-20T05:32:17;8.38;;;3.88;;
21780;SDS011;52576;53.614;9.894;2022-09-20T05:33:26;12.70;;;3.90;;
21780;SDS011;52576;53.614;9.894;2022-09-20T05:34:45;11.48;;;3.78;;
21780;SDS011;52576;53.614;9.894;2022-09-20T05:35:55;13.25;;;4.20;;
21780;SDS011;52576;53.614;9.894;2022-09-20T05:37:07;9.13;;;3.90;;
21780;SDS011;52576;53.614;9.894;2022-09-20T05:38:19;8.68;;;3.95;;
21780;SDS011;52576;53.614;9.894;2022-09-20T05:39:32;13.70;;;4.72;;
21780;SDS011;52576;53.614;9.894;2022-09-20T05:40:54;12.80;;;4.40;;
21780;SDS011;52576;53.614;9.894;2022-09-20T05:42:13;6.72;;;4.30;;
21780;SDS011;52576;53.614;9.894;2022-09-20T05:43:20;13.38;;;4.63;;
21780;SDS011;52576;53.614;9.894;2022-09-20T05:44:30;11.32;;;3.92;;
21780;SDS011;52576;53.614;9.894;2022-09-20T05:46:02;7.18;;;4.00;;
21780;SDS011;52576;53.614;9.894;2022-09-20T05:47:16;11.93;;;4.32;;
21780;SDS011;52576;53.614;9.894;2022-09-20T05:48:25;6.93;;;3.15;;
21780;SDS011;52576;53.614;9.894;2022-09-20T05:49:39;11.43;;;3.83;;
21780;SDS011;52576;53.614;9.894;2022-09-20T05:50:56;13.55;;;3.97;;
21780;SDS011;52576;53.614;9.894;2022-09-20T05:52:08;7.85;;;3.50;;
21780;SDS011;52576;53.614;9.894;2022-09-20T05:55:01;12.00;;;3.72;;
21780;SDS011;52576;53.614;9.894;2022-09-20T05:56:17;7.57;;;3.10;;
21780;SDS011;52576;53.614;9.894;2022-09-20T05:57:34;9.90;;;3.63;;
21780;SDS011;52576;53.614;9.894;2022-09-20T05:58:52;10.35;;;3.40;;
21780;SDS011;52576;53.614;9.894;2022-09-20T06:00:11;8.15;;;3.05;;
21780;SDS011;52576;53.614;9.894;2022-09-20T06:01:17;8.13;;;3.22;;
21780;SDS011;52576;53.614;9.894;2022-09-20T06:02:28;10.10;;;3.10;;
21780;SDS011;52576;53.614;9.894;2022-09-20T06:03:40;9.20;;;3.30;;
21780;SDS011;52576;53.614;9.894;2022-09-20T06:04:49;9.70;;;3.03;;
21780;SDS011;52576;53.614;9.894;2022-09-20T06:06:01;6.63;;;3.10;;
21780;SDS011;52576;53.614;9.894;2022-09-20T06:07:13;5.28;;;2.72;;
21780;SDS011;52576;53.614;9.894;2022-09-20T06:08:30;11.90;;;3.20;;
21780;SDS011;52576;53.614;9.894;2022-09-20T06:12:54;7.95;;;3.60;;
21780;SDS011;52576;53.614;9.894;2022-09-20T06:14:09;7.13;;;3.00;;
21780;SDS011;52576;53.614;9.894;2022-09-20T06:15:23;13.15;;;3.53;;
21780;SDS011;52576;53.614;9.894;2022-09-20T06:16:36;9.95;;;2.92;;
21780;SDS011;52576;53.614;9.894;2022-09-20T06:17:47;11.80;;;3.28;;
21780;SDS011;52576;53.614;9.894;2022-09-20T06:18:56;14.35;;;2.80;;
21780;SDS011;52576;53.614;9.894;2022-09-20T06:20:11;10.60;;;3.10;;
21780;SDS011;52576;53.614;9.894;2022-09-20T06:21:22;10.85;;;3.25;;
21780;SDS011;52576;53.614;9.894;2022-09-20T06:22:35;11.27;;;3.80;;
21780;SDS011;52576;53.614;9.894;2022-09-20T06:23:41;10.00;;;5.78;;
21780;SDS011;52576;53.614;9.894;2022-09-20T06:24:45;19.10;;;9.48;;
21780;SDS011;52576;53.614;9.894;2022-09-20T06:25:51;22.48;;;12.68;;
21780;SDS011;52576;53.614;9.894;2022-09-20T06:26:58;21.92;;;10.07;;
21780;SDS011;52576;53.614;9.894;2022-09-20T06:28:04;26.80;;;11.00;;
21780;SDS011;52576;53.614;9.894;2022-09-20T06:29:11;27.58;;;11.15;;
21780;SDS011;52576;53.614;9.894;2022-09-20T06:30:19;20.80;;;10.07;;
21780;SDS011;52576;53.614;9.894;2022-09-20T06:31:26;46.90;;;14.25;;
21780;SDS011;52576;53.614;9.894;2022-09-20T06:32:28;67.85;;;19.48;;
21780;SDS011;52576;53.614;9.894;2022-09-20T06:33:32;55.30;;;18.45;;
21780;SDS011;52576;53.614;9.894;2022-09-20T06:34:34;46.85;;;15.55;;
21780;SDS011;52576;53.614;9.894;2022-09-20T06:35:40;35.10;;;12.02;;
21780;SDS011;52576;53.614;9.894;2022-09-20T06:36:48;45.85;;;12.90;;
21780;SDS011;52576;53.614;9.894;2022-09-20T06:38:17;37.85;;;13.85;;
21780;SDS011;52576;53.614;9.894;2022-09-20T06:39:58;47.00;;;13.85;;
21780;SDS011;52576;53.614;9.894;2022-09-20T06:41:22;35.72;;;12.38;;
21780;SDS011;52576;53.614;9.894;2022-09-20T06:42:32;33.25;;;11.50;;
21780;SDS011;52576;53.614;9.894;2022-09-20T06:43:34;36.15;;;11.25;;
21780;SDS011;52576;53.614;9.894;2022-09-20T06:44:40;31.83;;;11.02;;
21780;SDS011;52576;53.614;9.894;2022-09-20T06:45:43;34.80;;;11.10;;
21780;SDS011;52576;53.614;9.894;2022-09-20T06:46:45;28.67;;;11.15;;
21780;SDS011;52576;53.614;9.894;2022-09-20T06:47:49;30.30;;;11.90;;
21780;SDS011;52576;53.614;9.894;2022-09-20T06:48:51;28.77;;;10.77;;
21780;SDS011;52576;53.614;9.894;2022-09-20T06:49:55;28.20;;;12.13;;
21780;SDS011;52576;53.614;9.894;2022-09-20T06:51:01;26.70;;;9.30;;
21780;SDS011;52576;53.614;9.894;2022-09-20T06:52:04;23.33;;;8.00;;
21780;SDS011;52576;53.614;9.894;2022-09-20T06:53:07;46.67;;;15.13;;
21780;SDS011;52576;53.614;9.894;2022-09-20T06:54:13;26.88;;;10.25;;
21780;SDS011;52576;53.614;9.894;2022-09-20T06:55:20;24.20;;;10.35;;
21780;SDS011;52576;53.614;9.894;2022-09-20T06:56:30;28.55;;;11.18;;
21780;SDS011;52576;53.614;9.894;2022-09-20T06:57:37;18.90;;;6.18;;
21780;SDS011;52576;53.614;9.894;2022-09-20T06:58:39;26.60;;;8.43;;
21780;SDS011;52576;53.614;9.894;2022-09-20T06:59:42;16.30;;;6.20;;
21780;SDS011;52576;53.614;9.894;2022-09-20T07:00:44;15.98;;;5.38;;
21780;SDS011;52576;53.614;9.894;2022-09-20T07:01:48;15.65;;;4.57;;
21780;SDS011;52576;53.614;9.894;2022-09-20T07:02:50;11.40;;;3.72;;
21780;SDS011;52576;53.614;9.894;2022-09-20T07:03:54;11.63;;;2.97;;
21780;SDS011;52576;53.614;9.894;2022-09-20T07:04:57;13.98;;;3.45;;
21780;SDS011;52576;53.614;9.894;2022-09-20T07:06:01;14.15;;;4.40;;
21780;SDS011;52576;53.614;9.894;2022-09-20T07:07:05;10.63;;;3.95;;
21780;SDS011;52576;53.614;9.894;2022-09-20T07:08:10;9.82;;;3.05;;
21780;SDS011;52576;53.614;9.894;2022-09-20T07:09:13;9.40;;;2.90;;
21780;SDS011;52576;53.614;9.894;2022-09-20T07:10:16;8.63;;;2.20;;
21780;SDS011;52576;53.614;9.894;2022-09-20T07:11:18;8.90;;;2.40;;
21780;SDS011;52576;53.614;9.894;2022-09-20T07:12:21;15.00;;;2.83;;
21780;SDS011;52576;53.614;9.894;2022-09-20T07:13:23;13.68;;;2.42;;
21780;SDS011;52576;53.614;9.894;2022-09-20T07:14:27;16.50;;;2.92;;
21780;SDS011;52576;53.614;9.894;2022-09-20T07:15:30;13.00;;;2.92;;
21780;SDS011;52576;53.614;9.894;2022-09-20T07:16:34;17.00;;;2.78;;
21780;SDS011;52576;53.614;9.894;2022-09-20T07:17:37;12.23;;;2.40;;
21780;SDS011;52576;53.614;9.894;2022-09-20T07:18:40;11.88;;;2.67;;
21780;SDS011;52576;53.614;9.894;2022-09-20T07:19:44;14.52;;;3.10;;
21780;SDS011;52576;53.614;9.894;2022-09-20T07:20:47;11.20;;;2.70;;
21780;SDS011;52576;53.614;9.894;2022-09-20T07:21:50;12.30;;;2.70;;
21780;SDS011;52576;53.614;9.894;2022-09-20T07:22:53;13.10;;;2.63;;
21780;SDS011;52576;53.614;9.894;2022-09-20T07:23:55;14.00;;;2.22;;
21780;SDS011;52576;53.614;9.894;2022-09-20T07:24:58;9.73;;;2.33;;
21780;SDS011;52576;53.614;9.894;2022-09-20T07:26:02;14.07;;;3.10;;
21780;SDS011;52576;53.614;9.894;2022-09-20T07:27:05;18.02;;;2.95;;
21780;SDS011;52576;53.614;9.894;2022-09-20T07:28:08;13.75;;;2.55;;
21780;SDS011;52576;53.614;9.894;2022-09-20T07:29:11;8.65;;;2.17;;
21780;SDS011;52576;53.614;9.894;2022-09-20T07:30:16;14.32;;;2.15;;
21780;SDS011;52576;53.614;9.894;2022-09-20T07:31:21;12.65;;;3.22;;
21780;SDS011;52576;53.614;9.894;2022-09-20T07:32:26;17.45;;;2.80;;
21780;SDS011;52576;53.614;9.894;2022-09-20T07:33:29;13.38;;;2.28;;
21780;SDS011;52576;53.614;9.894;2022-09-20T07:34:33;10.23;;;2.13;;
21780;SDS011;52576;53.614;9.894;2022-09-20T07:35:36;11.10;;;1.83;;